Time;durP1;ratioP1;P1;durP2;ratioP2;P2;SDS_P1;SDS_P2;PMS_P1;PMS_P2;Temp;Humidity;BMP_temperature;BMP_pressure;BME280_temperature;BME280_humidity;BME280_pressure;Samples;Min_cycle;Max_cycle;Signal;HPM_P1;HPM_P2
2022/08/28 00:00:17;;;;;;;5.97;2.38;;;;;;;16.12;63.53;100754.09;5005514;28;20112;-38
2022/08/28 00:02:45;;;;;;;4.72;2.95;;;;;;;16.08;63.51;100749.81;5003033;28;20110;-40
2022/08/28 00:05:13;;;;;;;2.78;2.42;;;;;;;16.03;63.67;100742.03;5002454;28;20085;-42
2022/08/28 00:07:40;;;;;;;3.47;2.75;;;;;;;16.01;63.41;100754.25;5005953;28;20046;-39
2022/08/28 00:10:15;;;;;;;5.35;2.88;;;;;;;15.99;64.11;100753.41;5010001;28;20041;-39
2022/08/28 00:12:43;;;;;;;3.22;1.40;;;;;;;15.96;64.07;100750.81;5000425;28;20477;-40
2022/08/28 00:15:28;;;;;;;2.28;1.20;;;;;;;15.86;63.88;100750.94;5007738;28;20776;-39
2022/08/28 00:17:54;;;;;;;4.60;2.58;;;;;;;15.89;63.91;100756.13;4986739;28;20102;-41
2022/08/28 00:20:23;;;;;;;2.75;2.20;;;;;;;15.86;63.90;100745.72;4999359;28;20104;-41
2022/08/28 00:22:50;;;;;;;7.00;2.78;;;;;;;15.83;64.02;100756.19;5008538;28;20068;-42
2022/08/28 00:25:19;;;;;;;3.67;2.72;;;;;;;15.80;64.06;100754.50;5007709;28;20046;-43
2022/08/28 00:27:53;;;;;;;3.08;2.78;;;;;;;15.77;63.90;100751.06;5008651;28;20054;-39
2022/08/28 00:30:26;;;;;;;3.42;3.05;;;;;;;15.75;64.11;100752.81;5008118;28;20050;-38
2022/08/28 00:32:55;;;;;;;4.75;2.55;;;;;;;15.73;64.17;100749.34;5008265;28;20050;-37
2022/08/28 00:35:22;;;;;;;6.85;2.78;;;;;;;15.72;64.53;100750.25;5003262;28;20379;-36
2022/08/28 00:37:50;;;;;;;4.47;2.60;;;;;;;15.70;64.37;100754.66;5002842;28;20049;-40
2022/08/28 00:40:19;;;;;;;5.97;3.25;;;;;;;15.68;64.47;100757.28;5004971;28;20054;-41
2022/08/28 00:42:59;;;;;;;2.90;2.55;;;;;;;15.64;64.69;100751.19;5006909;28;20046;-39
2022/08/28 00:45:26;;;;;;;3.92;2.97;;;;;;;15.63;64.83;100748.59;4998742;28;20047;-39
2022/08/28 00:47:53;;;;;;;6.03;2.97;;;;;;;15.62;65.17;100754.72;5008428;28;20650;-39
2022/08/28 00:50:23;;;;;;;6.65;2.97;;;;;;;15.60;65.38;100754.75;5005118;28;20046;-37
2022/08/28 00:52:56;;;;;;;4.55;2.83;;;;;;;15.59;64.82;100758.25;5004174;28;20077;-37
2022/08/28 00:55:26;;;;;;;3.70;2.40;;;;;;;15.56;64.98;100760.88;5007412;28;20041;-38
2022/08/28 00:57:57;;;;;;;4.70;2.28;;;;;;;15.54;65.47;100755.69;5002509;28;20129;-39
2022/08/28 01:00:29;;;;;;;3.78;2.80;;;;;;;15.53;64.98;100758.31;5005534;28;20061;-37
2022/08/28 01:02:57;;;;;;;6.88;2.72;;;;;;;15.50;64.45;100753.16;5002875;28;20092;-38
2022/08/28 01:05:25;;;;;;;3.70;2.53;;;;;;;15.48;64.76;100754.91;5003907;28;20045;-39
2022/08/28 01:07:54;;;;;;;4.43;2.28;;;;;;;15.44;65.38;100753.19;5005037;28;20549;-41
2022/08/28 01:10:23;;;;;;;3.03;2.40;;;;;;;15.40;64.68;100750.63;5004471;28;20073;-42
2022/08/28 01:12:52;;;;;;;3.75;3.25;;;;;;;15.36;64.92;100756.75;5005777;28;20045;-40
2022/08/28 01:15:22;;;;;;;5.50;2.85;;;;;;;15.34;64.99;100753.31;5001671;28;20101;-39
2022/08/28 01:17:55;;;;;;;4.20;3.03;;;;;;;15.30;64.78;100754.22;5003136;28;20050;-40
2022/08/28 01:20:27;;;;;;;4.15;2.72;;;;;;;15.28;64.66;100753.38;5005491;28;20046;-39
2022/08/28 01:23:07;;;;;;;5.55;3.40;;;;;;;15.22;64.94;100756.91;5004195;28;20050;-36
2022/08/28 01:25:36;;;;;;;3.85;3.08;;;;;;;15.21;65.46;100746.50;5004900;28;20042;-40
2022/08/28 01:28:07;;;;;;;5.20;2.78;;;;;;;15.18;64.85;100746.53;5006995;28;20053;-39
2022/08/28 01:30:34;;;;;;;2.95;2.25;;;;;;;15.14;64.63;100748.31;4995349;28;20053;-38
2022/08/28 01:33:01;;;;;;;3.75;2.88;;;;;;;15.11;65.12;100754.44;5004838;28;20049;-38
2022/08/28 01:35:32;;;;;;;3.63;2.67;;;;;;;15.10;65.20;100749.22;5006779;28;20420;-38
2022/08/28 01:37:59;;;;;;;5.30;2.85;;;;;;;15.06;65.11;100750.97;5004904;28;20050;-37
2022/08/28 01:40:35;;;;;;;4.55;1.80;;;;;;;15.02;65.70;100752.78;5007203;28;20454;-36
2022/08/28 01:43:08;;;;;;;3.88;3.47;;;;;;;14.99;65.25;100749.31;5005379;28;20054;-39
2022/08/28 01:45:36;;;;;;;4.60;2.78;;;;;;;15.00;65.38;100753.69;4997721;28;20049;-37
2022/08/28 01:48:05;;;;;;;3.75;2.72;;;;;;;14.97;65.33;100749.34;5002124;28;20096;-37
2022/08/28 01:50:33;;;;;;;3.63;1.48;;;;;;;14.94;65.36;100748.50;5004154;28;20437;-37
2022/08/28 01:53:04;;;;;;;5.32;3.17;;;;;;;14.93;65.78;100746.78;5003346;28;20038;-37
2022/08/28 01:55:34;;;;;;;7.80;3.45;;;;;;;14.90;65.94;100748.53;5004228;28;20046;-38
2022/08/28 01:58:04;;;;;;;5.13;3.13;;;;;;;14.88;65.75;100752.91;5001225;28;20045;-35
2022/08/28 02:00:31;;;;;;;5.20;3.25;;;;;;;14.84;65.58;100753.81;5002933;28;20112;-38
2022/08/28 02:02:59;;;;;;;3.40;1.85;;;;;;;14.83;65.62;100752.06;5005317;28;21098;-35
2022/08/28 02:05:29;;;;;;;3.90;2.92;;;;;;;14.82;66.33;100755.56;5003811;28;20038;-40
2022/08/28 02:07:57;;;;;;;4.20;2.90;;;;;;;14.80;66.03;100752.13;5002260;28;20093;-36
2022/08/28 02:10:25;;;;;;;3.00;2.53;;;;;;;14.78;66.37;100756.47;5005352;28;20132;-40
2022/08/28 02:12:54;;;;;;;5.28;2.80;;;;;;;14.77;65.82;100757.34;5004512;28;20137;-35
2022/08/28 02:15:26;;;;;;;4.28;3.00;;;;;;;14.74;65.98;100750.41;5000578;28;20049;-39
2022/08/28 02:17:52;;;;;;;3.35;2.70;;;;;;;14.74;65.99;100757.34;5002805;28;20127;-36
2022/08/28 02:20:19;;;;;;;3.60;2.88;;;;;;;14.73;65.84;100755.63;5006555;28;20567;-37
2022/08/28 02:22:47;;;;;;;4.47;3.00;;;;;;;14.72;66.23;100753.88;5003285;28;20061;-38
2022/08/28 02:25:15;;;;;;;4.25;1.75;;;;;;;14.71;66.35;100757.38;5005974;28;20516;-37
2022/08/28 02:27:43;;;;;;;6.28;2.78;;;;;;;14.71;66.18;100762.59;5005208;28;20050;-37
2022/08/28 02:30:12;;;;;;;3.03;2.42;;;;;;;14.69;65.65;100757.38;5005067;28;20104;-36
2022/08/28 02:32:38;;;;;;;3.60;2.67;;;;;;;14.67;65.90;100755.66;5004227;28;20105;-36
2022/08/28 02:35:07;;;;;;;4.15;2.72;;;;;;;14.64;65.66;100754.81;5003218;28;20046;-37
2022/08/28 02:37:38;;;;;;;4.93;2.92;;;;;;;14.61;65.77;100760.06;5008183;28;20050;-37
2022/08/28 02:40:05;;;;;;;4.03;2.75;;;;;;;14.59;66.02;100759.19;5009270;28;20050;-37
2022/08/28 02:42:32;;;;;;;5.57;2.88;;;;;;;14.57;66.12;100758.34;5007897;28;20046;-42
2022/08/28 02:44:59;;;;;;;3.72;2.85;;;;;;;14.54;66.62;100760.97;5011218;28;20072;-38
2022/08/28 02:47:26;;;;;;;4.72;3.20;;;;;;;14.52;66.44;100762.72;5008903;28;20050;-35
2022/08/28 02:49:53;;;;;;;3.75;2.72;;;;;;;14.50;66.28;100764.50;5008571;28;20101;-37
2022/08/28 02:52:20;;;;;;;4.00;2.88;;;;;;;14.48;65.99;100761.00;5007254;28;20785;-37
2022/08/28 02:54:47;;;;;;;4.93;3.00;;;;;;;14.44;66.55;100764.53;5008249;28;20041;-38
2022/08/28 02:57:14;;;;;;;3.80;2.60;;;;;;;14.42;66.77;100761.94;5009474;28;20670;-37
2022/08/28 02:59:42;;;;;;;3.67;2.88;;;;;;;14.41;66.39;100765.41;5003397;28;20049;-35
2022/08/28 03:02:08;;;;;;;4.13;1.60;;;;;;;14.39;67.00;100765.44;5010047;28;20429;-37
2022/08/28 03:04:36;;;;;;;2.65;1.60;;;;;;;14.38;66.05;100768.91;5008433;28;20433;-37
2022/08/28 03:07:06;;;;;;;4.50;3.20;;;;;;;14.37;67.10;100767.19;5005872;28;20108;-37
2022/08/28 03:09:32;;;;;;;3.92;2.42;;;;;;;14.33;66.61;100762.88;5008245;28;20133;-37
2022/08/28 03:11:59;;;;;;;5.43;2.78;;;;;;;14.33;66.00;100768.09;5008013;28;20056;-36
2022/08/28 03:14:26;;;;;;;3.60;2.78;;;;;;;14.29;66.61;100769.00;5006720;28;20077;-37
2022/08/28 03:16:53;;;;;;;4.93;2.80;;;;;;;14.27;65.95;100757.69;5000041;28;20112;-37
2022/08/28 03:19:20;;;;;;;4.40;1.65;;;;;;;14.24;66.00;100765.53;5005565;28;20421;-37
2022/08/28 03:21:46;;;;;;;2.95;1.42;;;;;;;14.22;66.13;100760.31;5005813;28;20560;-35
2022/08/28 03:24:17;;;;;;;6.25;3.28;;;;;;;14.22;67.25;100759.47;4987539;28;20065;-37
2022/08/28 03:26:45;;;;;;;3.58;3.05;;;;;;;14.20;67.47;100756.88;4987564;28;20050;-36
2022/08/28 03:29:12;;;;;;;3.80;3.25;;;;;;;14.20;67.03;100761.22;4988849;28;20043;-36
2022/08/28 03:31:38;;;;;;;4.45;3.63;;;;;;;14.18;67.12;100756.00;4989697;28;20046;-35
2022/08/28 03:34:05;;;;;;;5.25;3.38;;;;;;;14.17;66.77;100756.03;4989714;28;20368;-34
2022/08/28 03:36:33;;;;;;;4.90;3.17;;;;;;;14.16;66.78;100754.31;4988164;28;20136;-40
2022/08/28 03:39:04;;;;;;;4.20;3.72;;;;;;;14.14;67.20;100756.91;4988726;28;20057;-41
2022/08/28 03:41:32;;;;;;;4.32;3.35;;;;;;;14.10;66.93;100760.41;4985924;28;20129;-37
2022/08/28 03:44:00;;;;;;;4.78;3.60;;;;;;;14.07;67.01;100771.72;4989643;28;20105;-38
2022/08/28 03:46:31;;;;;;;4.78;3.08;;;;;;;14.06;66.88;100772.59;4990028;28;20109;-37
2022/08/28 03:49:00;;;;;;;4.63;3.38;;;;;;;14.04;67.53;100774.34;4986410;28;20145;-37
2022/08/28 03:51:30;;;;;;;4.47;3.45;;;;;;;14.03;66.44;100775.22;4984959;28;20058;-37
2022/08/28 03:53:58;;;;;;;3.15;2.58;;;;;;;14.01;67.32;100771.75;4988316;28;20057;-36
2022/08/28 03:56:27;;;;;;;4.40;3.47;;;;;;;13.98;67.36;100769.16;4985846;28;20152;-36
2022/08/28 03:58:56;;;;;;;7.43;4.55;;;;;;;13.95;66.79;100770.03;4987731;28;20096;-39
2022/08/28 04:01:24;;;;;;;6.50;3.95;;;;;;;13.92;66.48;100766.59;4987158;28;20050;-37
2022/08/28 04:03:51;;;;;;;5.30;2.30;;;;;;;13.91;67.52;100764.88;4989186;28;20712;-37
2022/08/28 04:06:18;;;;;;;9.05;3.45;;;;;;;13.90;67.51;100773.53;4984389;28;20063;-41
2022/08/28 04:08:46;;;;;;;4.90;3.67;;;;;;;13.88;67.73;100777.03;4989387;28;20042;-39
2022/08/28 04:11:13;;;;;;;6.25;3.88;;;;;;;13.86;67.84;100773.56;4989131;28;20124;-35
2022/08/28 04:13:40;;;;;;;6.40;4.47;;;;;;;13.85;67.54;100770.97;4990715;28;20046;-37
2022/08/28 04:16:10;;;;;;;6.03;5.22;;;;;;;13.85;66.96;100770.97;4989376;28;20050;-37
2022/08/28 04:18:40;;;;;;;6.60;4.20;;;;;;;13.84;67.61;100769.22;4985667;28;20100;-37
2022/08/28 04:21:10;;;;;;;5.20;3.88;;;;;;;13.83;67.69;100768.38;4989242;28;20061;-38
2022/08/28 04:23:39;;;;;;;4.85;2.92;;;;;;;13.81;67.24;100772.72;4986796;28;20058;-39
2022/08/28 04:26:07;;;;;;;6.88;3.25;;;;;;;13.77;67.63;100776.19;4985625;28;20054;-37
2022/08/28 04:28:34;;;;;;;6.25;4.03;;;;;;;13.77;67.29;100776.19;4985635;28;20128;-39
2022/08/28 04:31:02;;;;;;;6.85;3.88;;;;;;;13.76;67.45;100777.06;4988217;28;20042;-39
2022/08/28 04:33:30;;;;;;;5.22;3.78;;;;;;;13.73;67.10;100771.88;4984841;28;20053;-37
2022/08/28 04:35:56;;;;;;;7.22;3.88;;;;;;;13.71;66.99;100777.09;4983453;28;20066;-39
2022/08/28 04:38:23;;;;;;;4.30;3.17;;;;;;;13.69;67.56;100775.38;5001797;28;20694;-38
2022/08/28 04:40:49;;;;;;;4.28;3.30;;;;;;;13.67;67.87;100779.69;5006698;28;20096;-35
2022/08/28 04:43:16;;;;;;;4.38;3.65;;;;;;;13.62;68.10;100775.38;5008310;28;20054;-38
2022/08/28 04:45:44;;;;;;;4.68;2.75;;;;;;;13.60;67.75;100782.34;5007028;28;20045;-41
2022/08/28 04:48:12;;;;;;;4.55;3.47;;;;;;;13.58;66.87;100783.22;5007286;28;20400;-40
2022/08/28 04:50:41;;;;;;;4.50;3.42;;;;;;;13.59;67.25;100784.94;5006025;28;20057;-39
2022/08/28 04:53:08;;;;;;;4.85;3.13;;;;;;;13.56;67.31;100783.22;4986698;28;20498;-36
2022/08/28 04:55:41;;;;;;;5.47;3.67;;;;;;;13.55;67.53;100784.09;4984711;28;20038;-36
2022/08/28 04:58:20;;;;;;;6.85;4.00;;;;;;;13.56;68.15;100777.16;4982978;28;20053;-37
2022/08/28 05:00:51;;;;;;;5.05;2.42;;;;;;;13.57;67.84;100778.88;4986889;28;20446;-38
2022/08/28 05:03:18;;;;;;;4.88;3.60;;;;;;;13.56;68.21;100783.22;4987367;28;20088;-39
2022/08/28 05:05:51;;;;;;;4.28;3.78;;;;;;;13.55;68.29;100781.50;4984662;28;20046;-37
2022/08/28 05:08:22;;;;;;;6.75;3.60;;;;;;;13.55;67.59;100789.31;4987277;28;20054;-35
2022/08/28 05:10:49;;;;;;;9.82;3.95;;;;;;;13.54;68.08;100787.56;4989349;28;20046;-36
2022/08/28 05:13:17;;;;;;;11.68;3.83;;;;;;;13.53;67.67;100784.97;4985158;28;20050;-40
2022/08/28 05:15:47;;;;;;;6.82;3.70;;;;;;;13.53;67.72;100796.25;4988231;28;20101;-39
2022/08/28 05:18:16;;;;;;;7.85;3.53;;;;;;;13.52;68.10;100785.84;4969197;28;20062;-37
2022/08/28 05:20:46;;;;;;;6.13;3.75;;;;;;;13.52;67.57;100788.44;5001493;28;20057;-41
2022/08/28 05:23:15;;;;;;;5.10;4.07;;;;;;;13.52;67.48;100794.53;5006003;28;20038;-38
2022/08/28 05:25:45;;;;;;;6.43;3.92;;;;;;;13.54;67.41;100792.75;5006555;28;20096;-38
2022/08/28 05:28:12;;;;;;;7.35;3.80;;;;;;;13.55;68.21;100797.13;5005091;28;20050;-40
2022/08/28 05:30:42;;;;;;;6.32;4.35;;;;;;;13.58;68.71;100794.47;5006134;28;20049;-37
2022/08/28 05:33:12;;;;;;;8.10;5.15;;;;;;;13.61;68.28;100789.28;5003935;28;20077;-37
2022/08/28 05:35:40;;;;;;;;;;;;;;;13.46;67.99;100789.28;5002852;28;20050;-36
2022/08/28 05:38:07;;;;;;;56.38;3.97;;;;;;;13.61;68.91;100797.09;5006149;28;19925;-40
2022/08/28 05:40:42;;;;;;;10.57;3.72;;;;;;;13.61;67.97;100804.00;5001306;28;20050;-37
2022/08/28 05:43:10;;;;;;;16.00;3.45;;;;;;;13.59;68.70;100801.44;4999919;28;20050;-39
2022/08/28 05:45:36;;;;;;;4.35;3.42;;;;;;;13.60;68.38;100803.16;5004405;28;20049;-38
2022/08/28 05:48:04;;;;;;;4.47;3.70;;;;;;;13.64;68.22;100808.38;5005409;28;20042;-36
2022/08/28 05:50:30;;;;;;;5.82;3.83;;;;;;;13.69;67.35;100806.59;5003456;28;20053;-37
2022/08/28 05:52:57;;;;;;;5.47;4.03;;;;;;;13.72;69.14;100815.25;5005651;28;20058;-39
2022/08/28 05:55:24;;;;;;;5.20;3.63;;;;;;;13.79;68.63;100807.44;5006884;28;20042;-36
2022/08/28 05:57:50;;;;;;;8.30;4.53;;;;;;;13.83;68.53;100807.44;5005534;28;20576;-39
2022/08/28 06:00:17;;;;;;;5.88;4.10;;;;;;;13.88;68.53;100818.69;5004329;28;20100;-39
2022/08/28 06:02:43;;;;;;;5.45;4.00;;;;;;;13.93;68.61;100821.28;5006282;28;20050;-41
2022/08/28 06:05:11;;;;;;;9.18;3.63;;;;;;;13.97;68.82;100822.13;5003056;28;20061;-38
2022/08/28 06:07:39;;;;;;;5.22;3.67;;;;;;;14.00;68.74;100828.19;5003083;28;20567;-37
2022/08/28 06:10:06;;;;;;;4.78;4.28;;;;;;;14.05;68.83;100828.16;5004861;28;20057;-37
2022/08/28 06:12:36;;;;;;;4.30;3.42;;;;;;;14.07;69.70;100829.03;5004698;28;20088;-40
2022/08/28 06:15:04;;;;;;;4.90;4.10;;;;;;;14.13;69.08;100831.59;4999766;28;20053;-37
2022/08/28 06:17:31;;;;;;;3.95;3.22;;;;;;;14.21;69.24;100838.50;5003944;28;20050;-39
2022/08/28 06:19:58;;;;;;;5.55;3.42;;;;;;;14.27;69.73;100841.06;5005534;28;20398;-38
2022/08/28 06:22:25;;;;;;;4.07;3.20;;;;;;;14.34;69.64;100845.38;5004592;28;20072;-40
2022/08/28 06:24:52;;;;;;;5.78;4.78;;;;;;;14.40;69.14;100842.72;5005826;28;20049;-37
2022/08/28 06:27:19;;;;;;;4.90;3.72;;;;;;;14.45;69.97;100854.91;5005148;28;20129;-37
2022/08/28 06:29:46;;;;;;;5.13;4.00;;;;;;;14.51;70.14;100844.41;5004872;28;20093;-41
2022/08/28 06:32:12;;;;;;;6.05;3.95;;;;;;;14.57;69.48;100851.31;4999667;28;20902;-38
2022/08/28 06:34:39;;;;;;;4.82;3.97;;;;;;;14.61;69.51;100851.31;5004165;28;20054;-39
2022/08/28 06:37:06;;;;;;;6.45;4.97;;;;;;;14.68;69.08;100851.25;5003471;28;20041;-35
2022/08/28 06:39:33;;;;;;;5.80;4.20;;;;;;;14.75;69.90;100845.13;4999627;28;20541;-38
2022/08/28 06:42:00;;;;;;;5.35;3.42;;;;;;;14.84;69.77;100847.69;4984652;28;20097;-38
2022/08/28 06:44:26;;;;;;;6.88;5.07;;;;;;;14.94;69.66;100837.19;4986811;28;20046;-38
2022/08/28 06:46:53;;;;;;;7.25;5.00;;;;;;;15.02;69.94;100840.59;4983444;28;20101;-37
2022/08/28 06:49:20;;;;;;;6.38;4.18;;;;;;;15.13;69.30;100849.19;4985380;28;20105;-35
2022/08/28 06:51:47;;;;;;;8.75;4.25;;;;;;;15.23;69.69;100859.56;4983451;28;20058;-40
2022/08/28 06:54:16;;;;;;;5.03;3.42;;;;;;;15.36;69.57;100855.94;4986460;28;20662;-40
2022/08/28 06:56:48;;;;;;;7.50;4.20;;;;;;;15.55;69.65;100861.00;4985711;28;20057;-41
2022/08/28 06:59:15;;;;;;;8.10;4.22;;;;;;;15.77;69.50;100855.53;4984481;28;20096;-39
2022/08/28 07:01:41;;;;;;;7.22;4.05;;;;;;;15.94;69.09;100858.81;4983782;28;20089;-41
2022/08/28 07:04:10;;;;;;;7.25;3.58;;;;;;;16.07;68.20;100863.91;4986087;28;20057;-37
2022/08/28 07:06:40;;;;;;;4.80;4.03;;;;;;;16.21;68.82;100871.56;4981953;28;20160;-41
2022/08/28 07:09:10;;;;;;;6.93;3.88;;;;;;;16.34;68.52;100867.03;4985504;28;20046;-35
2022/08/28 07:11:38;;;;;;;5.35;3.97;;;;;;;16.54;68.42;100868.50;4985786;28;20050;-36
2022/08/28 07:14:05;;;;;;;3.88;3.25;;;;;;;16.92;67.96;100864.44;4986051;28;20046;-38
2022/08/28 07:16:37;;;;;;;7.10;4.43;;;;;;;17.53;68.23;100870.44;4982009;28;20054;-36
2022/08/28 07:19:06;;;;;;;6.22;3.53;;;;;;;18.24;67.63;100874.28;4979408;28;20049;-40
2022/08/28 07:21:33;;;;;;;6.53;3.75;;;;;;;18.80;65.58;100876.53;4986841;28;20046;-37
2022/08/28 07:24:05;;;;;;;6.95;3.90;;;;;;;19.27;65.49;100885.03;4985371;28;20054;-37
2022/08/28 07:26:32;;;;;;;3.47;2.00;;;;;;;20.01;64.64;100889.22;4988622;28;20426;-39
2022/08/28 07:29:03;;;;;;;4.78;3.25;;;;;;;20.79;63.88;100894.75;4990832;28;20050;-38
2022/08/28 07:31:39;;;;;;;3.47;3.17;;;;;;;21.42;61.27;100888.31;4973789;28;20085;-37
2022/08/28 07:34:08;;;;;;;4.28;3.17;;;;;;;21.80;60.98;100890.53;4989763;28;20541;-35
2022/08/28 07:36:35;;;;;;;4.93;3.50;;;;;;;22.23;59.77;100889.84;4985488;28;20050;-39
2022/08/28 07:39:03;;;;;;;2.97;1.83;;;;;;;22.70;58.89;100890.72;4991017;28;20402;-37
2022/08/28 07:41:32;;;;;;;3.50;2.92;;;;;;;22.98;57.74;100900.13;4989751;28;20058;-38
2022/08/28 07:46:45;;;;;;;3.83;3.42;;;;;;;22.97;56.88;100896.63;4988565;28;20046;-40
2022/08/28 07:49:15;;;;;;;5.25;2.92;;;;;;;23.11;56.88;100896.03;4990817;28;20092;-40
2022/08/28 07:51:43;;;;;;;3.88;2.15;;;;;;;23.29;56.44;100898.84;4973427;28;20050;-35
2022/08/28 07:54:13;;;;;;;2.85;2.65;;;;;;;23.43;56.03;100906.19;4988611;28;20058;-37
2022/08/28 07:56:44;;;;;;;4.05;2.78;;;;;;;23.66;55.58;100906.13;4983885;28;20078;-40
2022/08/28 07:59:12;;;;;;;2.72;2.20;;;;;;;24.00;55.66;100908.13;4989266;28;20085;-41
2022/08/28 08:01:45;;;;;;;3.45;2.67;;;;;;;24.35;54.00;100910.06;4986951;28;20089;-38
2022/08/28 08:04:14;;;;;;;4.07;2.58;;;;;;;24.73;53.96;100913.59;4988419;28;20153;-38
2022/08/28 08:06:42;;;;;;;3.42;2.45;;;;;;;25.13;52.91;100922.25;4971011;28;20100;-39
2022/08/28 08:09:12;;;;;;;4.47;2.47;;;;;;;25.39;51.81;100912.09;4990672;28;20054;-38
2022/08/28 08:11:39;;;;;;;3.28;2.38;;;;;;;25.75;51.80;100917.38;4984615;28;20054;-38
2022/08/28 08:14:06;;;;;;;2.13;1.92;;;;;;;26.09;50.99;100920.88;4987650;28;20057;-38
2022/08/28 08:16:38;;;;;;;2.83;1.92;;;;;;;26.35;50.12;100910.66;4988576;28;20050;-43
2022/08/28 08:19:08;;;;;;;5.47;2.55;;;;;;;26.44;49.22;100914.56;4989444;28;20053;-38
2022/08/28 08:21:36;;;;;;;2.25;2.05;;;;;;;26.40;47.89;100908.59;4986142;28;20051;-43
2022/08/28 08:24:03;;;;;;;2.55;2.05;;;;;;;26.49;48.41;100914.31;4984534;28;20055;-40
2022/08/28 08:26:31;;;;;;;3.60;1.45;;;;;;;26.55;47.71;100916.66;4981831;28;20069;-38
2022/08/28 08:28:58;;;;;;;2.22;1.92;;;;;;;26.38;47.17;100920.25;4983416;28;20049;-43
2022/08/28 08:31:31;;;;;;;4.63;2.90;;;;;;;25.76;46.74;100916.44;4982526;28;20050;-42
2022/08/28 08:34:01;;;;;;;4.60;2.47;;;;;;;25.43;48.59;100918.09;4986787;28;20049;-39
2022/08/28 08:36:29;;;;;;;4.82;1.20;;;;;;;25.66;48.13;100919.59;5000827;28;20663;-45
2022/08/28 08:38:57;;;;;;;3.63;1.65;;;;;;;25.66;47.55;100921.38;4984268;28;20133;-44
2022/08/28 08:49:27;;;;;;;2.05;0.80;;;;;;;26.68;45.13;100912.34;5044331;28;20412;-43
2022/08/28 08:57:37;;;;;;;2.60;0.75;;;;;;;27.56;44.34;100912.59;5048843;27;20399;-39
2022/08/28 09:00:08;;;;;;;4.03;0.75;;;;;;;27.60;44.33;100914.13;5011953;28;20103;-41
2022/08/28 09:02:55;;;;;;;2.03;1.08;;;;;;;27.29;43.82;100916.00;5008373;28;20042;-42
2022/08/28 09:05:37;;;;;;;2.80;0.60;;;;;;;26.74;43.84;100912.94;4993832;28;20050;-38
2022/08/28 09:08:06;;;;;;;5.47;0.98;;;;;;;26.22;44.78;100912.25;4998827;28;20046;-42
2022/08/28 09:10:40;;;;;;;2.97;0.77;;;;;;;25.98;45.98;100917.94;5015929;28;20115;-43
2022/08/28 09:15:52;;;;;;;2.17;1.25;;;;;;;25.80;45.54;100904.72;5045226;28;20380;-41
2022/08/28 09:18:24;;;;;;;2.85;1.95;;;;;;;25.70;45.80;100903.53;5025523;28;20065;-43
2022/08/28 09:20:55;;;;;;;2.70;1.15;;;;;;;26.00;45.32;100906.31;5022995;28;20057;-41
2022/08/28 09:23:23;;;;;;;2.17;1.58;;;;;;;26.44;45.54;100901.28;5041781;28;20042;-40
2022/08/28 09:31:31;;;;;;;1.17;0.40;;;;;;;26.76;43.21;100903.06;5046341;27;20425;-38
2022/08/28 09:34:22;;;;;;;1.52;0.57;;;;;;;26.63;44.21;100909.09;5026475;28;20092;-38
2022/08/28 09:36:51;;;;;;;2.45;0.68;;;;;;;26.77;44.54;100904.78;5010209;28;20100;-41
2022/08/28 09:39:26;;;;;;;1.52;0.73;;;;;;;27.11;44.27;100908.16;5025143;28;20041;-39
2022/08/28 09:56:02;;;;;;;1.30;0.75;;;;;;;27.20;41.57;100912.06;5043623;28;20391;-39
2022/08/28 10:06:59;;;;;;;1.75;0.50;;;;;;;26.94;40.72;100917.09;5058393;28;20398;-43
2022/08/28 10:20:16;;;;;;;2.72;0.60;;;;;;;27.12;41.90;100906.34;5108496;27;20386;-41
2022/08/28 10:28:38;;;;;;;3.53;1.85;;;;;;;27.56;40.87;100899.31;5086818;27;20400;-38
2022/08/28 10:31:25;;;;;;;2.65;1.40;;;;;;;27.60;40.80;100898.16;5059915;28;20053;-42
2022/08/28 10:36:53;;;;;;;3.85;0.55;;;;;;;27.63;39.67;100903.34;5069197;27;20409;-37
2022/08/28 10:42:05;;;;;;;2.20;0.68;;;;;;;27.75;40.17;100891.06;5024754;28;20414;-40
2022/08/28 10:44:43;;;;;;;0.98;0.35;;;;;;;27.93;38.70;100902.34;5020115;28;20046;-40
2022/08/28 10:47:12;;;;;;;1.42;0.55;;;;;;;27.97;39.07;100901.22;5015851;28;20054;-38
2022/08/28 10:49:42;;;;;;;1.20;0.65;;;;;;;28.02;38.46;100903.59;5012874;28;20042;-43
2022/08/28 10:52:15;;;;;;;4.95;0.95;;;;;;;28.04;39.03;100908.81;5011549;28;20069;-39
2022/08/28 11:00:14;;;;;;;1.27;0.47;;;;;;;27.89;39.07;100914.16;5063833;28;20735;-38
2022/08/28 11:02:44;;;;;;;1.77;0.80;;;;;;;27.84;38.51;100916.25;5021411;28;20061;-39
2022/08/28 11:05:12;;;;;;;1.05;0.45;;;;;;;27.78;37.78;100919.28;5016509;28;20184;-38
2022/08/28 11:07:46;;;;;;;2.75;0.75;;;;;;;27.80;37.96;100914.72;5013406;28;20112;-38
2022/08/28 11:13:09;;;;;;;2.33;1.02;;;;;;;27.78;36.32;100911.31;5052405;27;20796;-40
2022/08/28 11:21:14;;;;;;;1.65;1.05;;;;;;;27.69;37.99;100902.94;5019038;27;20760;-42
2022/08/28 11:23:48;;;;;;;0.70;0.35;;;;;;;27.86;37.49;100901.03;5011087;28;20563;-40
2022/08/28 11:26:29;;;;;;;2.33;0.80;;;;;;;27.89;37.21;100898.19;5008465;28;20045;-43
2022/08/28 11:28:57;;;;;;;1.80;0.65;;;;;;;27.91;38.20;100896.28;5012568;28;20079;-38
2022/08/28 11:31:29;;;;;;;1.98;0.70;;;;;;;28.00;37.58;100894.84;5011877;28;20054;-41
2022/08/28 11:33:57;;;;;;;2.00;0.60;;;;;;;28.01;37.79;100901.03;5036182;28;20041;-41
2022/08/28 11:39:17;;;;;;;1.40;1.30;;;;;;;27.92;37.09;100887.34;5064015;27;20410;-39
2022/08/28 11:44:47;;;;;;;3.85;1.60;;;;;;;27.55;36.69;100889.59;5017478;27;20872;-42
2022/08/28 11:47:36;;;;;;;1.63;0.45;;;;;;;27.39;37.73;100893.19;5014092;28;20379;-41
2022/08/28 11:50:13;;;;;;;4.22;2.70;;;;;;;27.34;38.79;100887.31;5038430;28;20650;-48
2022/08/28 11:58:14;;;;;;;0.55;0.43;;;;;;;27.44;37.68;100888.47;5051481;27;20407;-43
2022/08/28 12:03:52;;;;;;;2.13;0.70;;;;;;;27.43;37.18;100881.41;5053367;27;20402;-42
2022/08/28 12:06:59;;;;;;;2.72;0.85;;;;;;;27.37;38.08;100887.13;5022241;28;20060;-40
2022/08/28 12:22:52;;;;;;;2.95;0.50;;;;;;;26.63;38.58;100877.22;5042319;28;20406;-47
2022/08/28 12:25:40;;;;;;;0.73;0.47;;;;;;;26.65;38.84;100864.69;5017816;28;20111;-41
2022/08/28 12:28:30;;;;;;;2.90;0.68;;;;;;;26.76;39.31;100865.88;5015777;28;20050;-45
2022/08/28 12:31:13;;;;;;;0.90;0.38;;;;;;;26.79;38.81;100869.22;5035451;28;20049;-49
2022/08/28 12:34:05;;;;;;;0.93;0.45;;;;;;;26.80;37.82;100862.09;5020420;28;20049;-44
2022/08/28 12:36:33;;;;;;;2.88;0.82;;;;;;;26.79;38.69;100871.00;5021194;28;20042;-43
2022/08/28 12:39:00;;;;;;;3.10;0.43;;;;;;;26.74;38.12;100865.13;5021120;28;20402;-46
2022/08/28 12:41:26;;;;;;;2.70;0.88;;;;;;;26.67;38.18;100862.81;5022761;28;20046;-41
2022/08/28 12:43:57;;;;;;;2.05;0.60;;;;;;;26.65;38.62;100869.16;5019903;28;20092;-46
2022/08/28 12:46:28;;;;;;;2.15;0.40;;;;;;;26.57;38.60;100861.63;5025757;28;20050;-48
2022/08/28 12:48:58;;;;;;;2.30;0.85;;;;;;;26.21;38.81;100860.09;5033508;28;20075;-46
2022/08/28 12:51:28;;;;;;;0.80;0.38;;;;;;;26.13;39.02;100863.16;5041937;28;20042;-41
2022/08/28 12:53:59;;;;;;;1.48;0.55;;;;;;;26.07;39.37;100861.69;5019474;28;20529;-40
2022/08/28 12:56:28;;;;;;;0.82;0.70;;;;;;;26.05;39.41;100860.94;5033049;28;20111;-48
2022/08/28 12:59:35;;;;;;;2.65;1.02;;;;;;;26.06;39.65;100860.00;5024970;28;20088;-51
2022/08/28 13:12:33;;;;;;;2.53;1.80;;;;;;;26.01;39.75;100854.09;5061157;28;20434;-54
2022/08/28 13:15:41;;;;;;;1.48;0.65;;;;;;;25.86;39.48;100856.66;5006531;28;20566;-52
2022/08/28 13:18:08;;;;;;;1.65;1.52;;;;;;;25.89;39.75;100858.28;5015892;28;20119;-51
2022/08/28 13:20:36;;;;;;;2.08;1.98;;;;;;;25.80;40.04;100857.84;5018783;28;20474;-52
2022/08/28 13:23:04;;;;;;;2.60;1.45;;;;;;;25.81;39.60;100853.41;5013868;28;20057;-48
2022/08/28 13:25:35;;;;;;;1.83;1.60;;;;;;;25.81;39.57;100856.06;5006257;28;20049;-53
2022/08/28 13:28:11;;;;;;;1.80;1.67;;;;;;;25.83;39.86;100851.50;5016827;28;20050;-50
2022/08/28 13:30:38;;;;;;;2.50;1.67;;;;;;;25.84;40.12;100853.25;5010697;28;20050;-50
2022/08/28 13:33:19;;;;;;;3.35;1.63;;;;;;;25.89;39.97;100840.56;5008111;28;20073;-52
2022/08/28 13:35:47;;;;;;;3.53;1.83;;;;;;;25.86;39.45;100846.03;4974777;28;20047;-54
2022/08/28 13:38:16;;;;;;;5.22;2.05;;;;;;;25.87;39.76;100847.75;5004224;28;20434;-51